sensor_id;sensor_type;location;lat;lon;timestamp;P1;durP1;ratioP1;P2;durP2;ratioP2
60054;SDS011;45930;53.514;55.904;2023-03-01T00:00:50;9.33;;;6.67;;
60054;SDS011;45930;53.514;55.904;2023-03-01T00:01:51;11.93;;;8.00;;
60054;SDS011;45930;53.514;55.904;2023-03-01T00:02:52;11.33;;;8.37;;
60054;SDS011;45930;53.514;55.904;2023-03-01T00:03:53;12.90;;;8.83;;
60054;SDS011;45930;53.514;55.904;2023-03-01T00:04:54;11.83;;;7.97;;
60054;SDS011;45930;53.514;55.904;2023-03-01T00:05:55;9.93;;;7.73;;
60054;SDS011;45930;53.514;55.904;2023-03-01T00:06:56;9.97;;;7.03;;
60054;SDS011;45930;53.514;55.904;2023-03-01T00:07:57;12.30;;;8.17;;
60054;SDS011;45930;53.514;55.904;2023-03-01T00:08:58;13.43;;;8.53;;
60054;SDS011;45930;53.514;55.904;2023-03-01T00:09:59;11.23;;;7.23;;
60054;SDS011;45930;53.514;55.904;2023-03-01T00:12:21;9.53;;;7.27;;
60054;SDS011;45930;53.514;55.904;2023-03-01T00:13:22;9.03;;;6.73;;
60054;SDS011;45930;53.514;55.904;2023-03-01T00:14:23;10.00;;;6.20;;
60054;SDS011;45930;53.514;55.904;2023-03-01T00:15:24;10.73;;;6.83;;
60054;SDS011;45930;53.514;55.904;2023-03-01T00:16:25;9.60;;;6.23;;
60054;SDS011;45930;53.514;55.904;2023-03-01T00:17:28;10.33;;;6.67;;
60054;SDS011;45930;53.514;55.904;2023-03-01T00:18:29;13.80;;;8.70;;
60054;SDS011;45930;53.514;55.904;2023-03-01T00:19:30;9.60;;;5.90;;
60054;SDS011;45930;53.514;55.904;2023-03-01T00:20:32;10.57;;;6.63;;
60054;SDS011;45930;53.514;55.904;2023-03-01T00:21:33;9.30;;;6.50;;
60054;SDS011;45930;53.514;55.904;2023-03-01T00:22:36;11.63;;;7.57;;
60054;SDS011;45930;53.514;55.904;2023-03-01T00:23:37;12.80;;;7.67;;
60054;SDS011;45930;53.514;55.904;2023-03-01T00:24:38;9.93;;;7.23;;
60054;SDS011;45930;53.514;55.904;2023-03-01T00:25:42;10.40;;;6.93;;
60054;SDS011;45930;53.514;55.904;2023-03-01T00:26:43;10.87;;;7.30;;
60054;SDS011;45930;53.514;55.904;2023-03-01T00:27:44;10.93;;;7.80;;
60054;SDS011;45930;53.514;55.904;2023-03-01T00:28:47;10.90;;;8.13;;
60054;SDS011;45930;53.514;55.904;2023-03-01T00:29:48;12.97;;;8.50;;
60054;SDS011;45930;53.514;55.904;2023-03-01T00:30:48;14.30;;;8.23;;
60054;SDS011;45930;53.514;55.904;2023-03-01T00:31:49;12.27;;;8.63;;
60054;SDS011;45930;53.514;55.904;2023-03-01T00:32:50;11.63;;;7.83;;
60054;SDS011;45930;53.514;55.904;2023-03-01T00:33:54;12.40;;;8.37;;
60054;SDS011;45930;53.514;55.904;2023-03-01T00:34:59;12.30;;;8.63;;
60054;SDS011;45930;53.514;55.904;2023-03-01T00:36:00;13.07;;;8.80;;
60054;SDS011;45930;53.514;55.904;2023-03-01T00:37:01;13.33;;;9.20;;
60054;SDS011;45930;53.514;55.904;2023-03-01T00:38:05;14.77;;;9.43;;
60054;SDS011;45930;53.514;55.904;2023-03-01T00:39:09;11.27;;;7.63;;
60054;SDS011;45930;53.514;55.904;2023-03-01T00:40:11;15.80;;;9.73;;
60054;SDS011;45930;53.514;55.904;2023-03-01T00:41:14;12.63;;;8.07;;
60054;SDS011;45930;53.514;55.904;2023-03-01T00:42:16;13.33;;;8.83;;
60054;SDS011;45930;53.514;55.904;2023-03-01T00:43:18;13.90;;;8.37;;
60054;SDS011;45930;53.514;55.904;2023-03-01T00:44:19;12.27;;;8.60;;
60054;SDS011;45930;53.514;55.904;2023-03-01T00:45:20;11.93;;;7.67;;
60054;SDS011;45930;53.514;55.904;2023-03-01T00:46:21;11.57;;;8.90;;
60054;SDS011;45930;53.514;55.904;2023-03-01T00:47:24;12.73;;;9.03;;
60054;SDS011;45930;53.514;55.904;2023-03-01T00:48:25;12.53;;;8.03;;
60054;SDS011;45930;53.514;55.904;2023-03-01T00:49:26;12.37;;;8.60;;
60054;SDS011;45930;53.514;55.904;2023-03-01T00:50:28;12.63;;;7.90;;
60054;SDS011;45930;53.514;55.904;2023-03-01T00:51:29;12.00;;;8.30;;
60054;SDS011;45930;53.514;55.904;2023-03-01T00:52:30;14.13;;;8.87;;
60054;SDS011;45930;53.514;55.904;2023-03-01T00:53:31;10.67;;;7.87;;
60054;SDS011;45930;53.514;55.904;2023-03-01T00:54:32;13.40;;;8.97;;
60054;SDS011;45930;53.514;55.904;2023-03-01T00:55:33;12.33;;;8.33;;
60054;SDS011;45930;53.514;55.904;2023-03-01T00:56:36;12.40;;;7.80;;
60054;SDS011;45930;53.514;55.904;2023-03-01T00:57:37;14.27;;;8.20;;
60054;SDS011;45930;53.514;55.904;2023-03-01T00:58:38;14.10;;;8.97;;
60054;SDS011;45930;53.514;55.904;2023-03-01T00:59:39;14.23;;;8.73;;
60054;SDS011;45930;53.514;55.904;2023-03-01T01:00:40;14.33;;;8.97;;
60054;SDS011;45930;53.514;55.904;2023-03-01T01:01:41;15.47;;;8.50;;
60054;SDS011;45930;53.514;55.904;2023-03-01T01:02:42;13.47;;;8.13;;
60054;SDS011;45930;53.514;55.904;2023-03-01T01:03:46;13.57;;;8.53;;
60054;SDS011;45930;53.514;55.904;2023-03-01T01:04:56;13.60;;;9.07;;
60054;SDS011;45930;53.514;55.904;2023-03-01T01:05:57;14.70;;;8.53;;
60054;SDS011;45930;53.514;55.904;2023-03-01T01:06:58;13.73;;;9.33;;
60054;SDS011;45930;53.514;55.904;2023-03-01T01:07:59;14.43;;;8.93;;
60054;SDS011;45930;53.514;55.904;2023-03-01T01:08:59;14.30;;;8.87;;
60054;SDS011;45930;53.514;55.904;2023-03-01T01:10:00;12.93;;;8.53;;
60054;SDS011;45930;53.514;55.904;2023-03-01T01:11:01;13.37;;;8.83;;
60054;SDS011;45930;53.514;55.904;2023-03-01T01:12:02;14.30;;;9.27;;
60054;SDS011;45930;53.514;55.904;2023-03-01T01:13:04;15.90;;;9.70;;
60054;SDS011;45930;53.514;55.904;2023-03-01T01:14:05;14.10;;;9.37;;
60054;SDS011;45930;53.514;55.904;2023-03-01T01:15:06;13.33;;;8.87;;
60054;SDS011;45930;53.514;55.904;2023-03-01T01:16:07;16.87;;;9.87;;
60054;SDS011;45930;53.514;55.904;2023-03-01T01:17:08;15.13;;;9.40;;
60054;SDS011;45930;53.514;55.904;2023-03-01T01:18:09;16.00;;;8.47;;
60054;SDS011;45930;53.514;55.904;2023-03-01T01:19:10;15.47;;;9.50;;
60054;SDS011;45930;53.514;55.904;2023-03-01T01:20:11;15.57;;;10.07;;
60054;SDS011;45930;53.514;55.904;2023-03-01T01:21:14;13.83;;;9.47;;
60054;SDS011;45930;53.514;55.904;2023-03-01T01:22:16;15.10;;;8.90;;
60054;SDS011;45930;53.514;55.904;2023-03-01T01:23:17;15.47;;;9.60;;
60054;SDS011;45930;53.514;55.904;2023-03-01T01:24:18;17.67;;;10.80;;
60054;SDS011;45930;53.514;55.904;2023-03-01T01:25:19;19.43;;;10.57;;
60054;SDS011;45930;53.514;55.904;2023-03-01T01:26:24;13.80;;;8.70;;
60054;SDS011;45930;53.514;55.904;2023-03-01T01:27:27;15.07;;;9.23;;
60054;SDS011;45930;53.514;55.904;2023-03-01T01:28:28;14.77;;;9.47;;
60054;SDS011;45930;53.514;55.904;2023-03-01T01:29:28;16.63;;;9.43;;
60054;SDS011;45930;53.514;55.904;2023-03-01T01:30:29;17.93;;;10.73;;
60054;SDS011;45930;53.514;55.904;2023-03-01T01:31:30;16.97;;;10.73;;
60054;SDS011;45930;53.514;55.904;2023-03-01T01:32:32;17.13;;;10.23;;
60054;SDS011;45930;53.514;55.904;2023-03-01T01:33:33;20.00;;;11.80;;
60054;SDS011;45930;53.514;55.904;2023-03-01T01:34:34;17.13;;;9.77;;
60054;SDS011;45930;53.514;55.904;2023-03-01T01:35:35;17.63;;;10.37;;
60054;SDS011;45930;53.514;55.904;2023-03-01T01:36:36;18.97;;;10.87;;
60054;SDS011;45930;53.514;55.904;2023-03-01T01:37:37;20.30;;;11.63;;
60054;SDS011;45930;53.514;55.904;2023-03-01T01:38:38;14.87;;;9.17;;
60054;SDS011;45930;53.514;55.904;2023-03-01T01:39:39;15.13;;;10.07;;
60054;SDS011;45930;53.514;55.904;2023-03-01T01:40:43;14.90;;;10.17;;
60054;SDS011;45930;53.514;55.904;2023-03-01T01:41:45;17.00;;;10.23;;
60054;SDS011;45930;53.514;55.904;2023-03-01T01:42:47;12.93;;;8.07;;
60054;SDS011;45930;53.514;55.904;2023-03-01T01:43:49;14.17;;;8.67;;
60054;SDS011;45930;53.514;55.904;2023-03-01T01:45:43;13.73;;;9.30;;
60054;SDS011;45930;53.514;55.904;2023-03-01T01:47:57;14.47;;;9.00;;
60054;SDS011;45930;53.514;55.904;2023-03-01T01:49:04;15.20;;;10.70;;
60054;SDS011;45930;53.514;55.904;2023-03-01T01:50:08;15.87;;;10.03;;
60054;SDS011;45930;53.514;55.904;2023-03-01T01:51:18;17.20;;;9.68;;
60054;SDS011;45930;53.514;55.904;2023-03-01T01:52:25;15.93;;;9.50;;
60054;SDS011;45930;53.514;55.904;2023-03-01T01:53:29;16.30;;;10.17;;
60054;SDS011;45930;53.514;55.904;2023-03-01T01:54:50;15.83;;;8.87;;
60054;SDS011;45930;53.514;55.904;2023-03-01T01:55:57;16.93;;;8.20;;
60054;SDS011;45930;53.514;55.904;2023-03-01T01:57:02;14.10;;;8.53;;
60054;SDS011;45930;53.514;55.904;2023-03-01T01:58:06;13.17;;;8.27;;
60054;SDS011;45930;53.514;55.904;2023-03-01T01:59:10;10.93;;;6.77;;
60054;SDS011;45930;53.514;55.904;2023-03-01T02:00:13;12.13;;;8.17;;
60054;SDS011;45930;53.514;55.904;2023-03-01T02:01:22;13.10;;;7.93;;
60054;SDS011;45930;53.514;55.904;2023-03-01T02:02:23;12.43;;;7.50;;
60054;SDS011;45930;53.514;55.904;2023-03-01T02:03:25;11.80;;;7.80;;
60054;SDS011;45930;53.514;55.904;2023-03-01T02:04:30;13.10;;;8.30;;
60054;SDS011;45930;53.514;55.904;2023-03-01T02:08:26;12.73;;;8.33;;
60054;SDS011;45930;53.514;55.904;2023-03-01T02:09:30;13.23;;;9.03;;
60054;SDS011;45930;53.514;55.904;2023-03-01T02:10:33;12.90;;;8.53;;
60054;SDS011;45930;53.514;55.904;2023-03-01T02:11:35;12.80;;;8.73;;
60054;SDS011;45930;53.514;55.904;2023-03-01T02:12:37;10.60;;;8.73;;
60054;SDS011;45930;53.514;55.904;2023-03-01T02:13:39;12.17;;;7.40;;
60054;SDS011;45930;53.514;55.904;2023-03-01T02:14:41;11.40;;;8.07;;
60054;SDS011;45930;53.514;55.904;2023-03-01T02:15:42;12.50;;;8.53;;
60054;SDS011;45930;53.514;55.904;2023-03-01T02:16:46;10.87;;;6.93;;
60054;SDS011;45930;53.514;55.904;2023-03-01T02:17:48;12.80;;;8.40;;
60054;SDS011;45930;53.514;55.904;2023-03-01T02:18:49;10.47;;;6.87;;
60054;SDS011;45930;53.514;55.904;2023-03-01T02:19:58;8.13;;;6.67;;
60054;SDS011;45930;53.514;55.904;2023-03-01T02:22:32;12.80;;;7.93;;
60054;SDS011;45930;53.514;55.904;2023-03-01T02:23:34;12.40;;;8.43;;
60054;SDS011;45930;53.514;55.904;2023-03-01T02:24:49;11.30;;;7.73;;
60054;SDS011;45930;53.514;55.904;2023-03-01T02:27:37;12.63;;;8.70;;
60054;SDS011;45930;53.514;55.904;2023-03-01T02:28:44;12.27;;;8.52;;
60054;SDS011;45930;53.514;55.904;2023-03-01T02:29:45;15.10;;;9.40;;
60054;SDS011;45930;53.514;55.904;2023-03-01T02:30:47;13.57;;;8.80;;
60054;SDS011;45930;53.514;55.904;2023-03-01T02:32:08;15.30;;;7.37;;
60054;SDS011;45930;53.514;55.904;2023-03-01T02:33:10;13.60;;;8.27;;
60054;SDS011;45930;53.514;55.904;2023-03-01T02:34:15;10.73;;;8.17;;
60054;SDS011;45930;53.514;55.904;2023-03-01T02:35:18;12.67;;;8.00;;
60054;SDS011;45930;53.514;55.904;2023-03-01T02:36:21;13.43;;;9.23;;
60054;SDS011;45930;53.514;55.904;2023-03-01T02:37:25;13.10;;;8.27;;
60054;SDS011;45930;53.514;55.904;2023-03-01T02:38:27;12.70;;;8.80;;
60054;SDS011;45930;53.514;55.904;2023-03-01T02:39:33;15.00;;;9.70;;
60054;SDS011;45930;53.514;55.904;2023-03-01T02:40:42;11.77;;;8.20;;
60054;SDS011;45930;53.514;55.904;2023-03-01T02:41:48;14.33;;;8.80;;
60054;SDS011;45930;53.514;55.904;2023-03-01T02:42:53;15.10;;;9.40;;
60054;SDS011;45930;53.514;55.904;2023-03-01T02:43:56;13.97;;;9.13;;
60054;SDS011;45930;53.514;55.904;2023-03-01T02:44:57;13.53;;;9.30;;
60054;SDS011;45930;53.514;55.904;2023-03-01T02:45:59;13.50;;;9.50;;
60054;SDS011;45930;53.514;55.904;2023-03-01T02:47:04;12.87;;;8.43;;
60054;SDS011;45930;53.514;55.904;2023-03-01T02:48:06;13.40;;;8.10;;
60054;SDS011;45930;53.514;55.904;2023-03-01T02:50:39;12.40;;;8.50;;
60054;SDS011;45930;53.514;55.904;2023-03-01T02:55:06;12.60;;;8.77;;
60054;SDS011;45930;53.514;55.904;2023-03-01T02:56:09;12.40;;;8.27;;
60054;SDS011;45930;53.514;55.904;2023-03-01T02:57:13;12.87;;;8.67;;
60054;SDS011;45930;53.514;55.904;2023-03-01T02:58:14;13.00;;;8.27;;
60054;SDS011;45930;53.514;55.904;2023-03-01T02:59:16;13.07;;;8.70;;
60054;SDS011;45930;53.514;55.904;2023-03-01T03:00:21;14.73;;;8.90;;
60054;SDS011;45930;53.514;55.904;2023-03-01T03:01:27;13.07;;;9.20;;
60054;SDS011;45930;53.514;55.904;2023-03-01T03:02:37;13.43;;;8.43;;
60054;SDS011;45930;53.514;55.904;2023-03-01T03:03:38;11.70;;;7.73;;
60054;SDS011;45930;53.514;55.904;2023-03-01T03:04:38;12.53;;;8.20;;
60054;SDS011;45930;53.514;55.904;2023-03-01T03:05:39;12.30;;;8.00;;
60054;SDS011;45930;53.514;55.904;2023-03-01T03:06:40;13.03;;;9.00;;
60054;SDS011;45930;53.514;55.904;2023-03-01T03:07:43;11.60;;;8.17;;
60054;SDS011;45930;53.514;55.904;2023-03-01T03:08:45;11.23;;;7.27;;
60054;SDS011;45930;53.514;55.904;2023-03-01T03:09:45;10.73;;;7.73;;
60054;SDS011;45930;53.514;55.904;2023-03-01T03:10:46;13.10;;;8.27;;
60054;SDS011;45930;53.514;55.904;2023-03-01T03:11:47;10.57;;;7.47;;
60054;SDS011;45930;53.514;55.904;2023-03-01T03:12:49;12.90;;;9.03;;
60054;SDS011;45930;53.514;55.904;2023-03-01T03:13:55;13.10;;;9.03;;
60054;SDS011;45930;53.514;55.904;2023-03-01T03:14:56;16.37;;;8.97;;
60054;SDS011;45930;53.514;55.904;2023-03-01T03:15:57;11.90;;;8.30;;
60054;SDS011;45930;53.514;55.904;2023-03-01T03:16:58;13.03;;;9.00;;
60054;SDS011;45930;53.514;55.904;2023-03-01T03:17:59;10.70;;;8.47;;
60054;SDS011;45930;53.514;55.904;2023-03-01T03:19:00;11.73;;;8.63;;
60054;SDS011;45930;53.514;55.904;2023-03-01T03:20:06;15.87;;;9.70;;
60054;SDS011;45930;53.514;55.904;2023-03-01T03:21:12;14.13;;;9.53;;
60054;SDS011;45930;53.514;55.904;2023-03-01T03:22:13;15.00;;;9.83;;
60054;SDS011;45930;53.514;55.904;2023-03-01T03:23:14;14.70;;;9.33;;
60054;SDS011;45930;53.514;55.904;2023-03-01T03:24:14;14.70;;;9.67;;
60054;SDS011;45930;53.514;55.904;2023-03-01T03:25:16;11.57;;;8.47;;
60054;SDS011;45930;53.514;55.904;2023-03-01T03:26:18;13.60;;;8.43;;
60054;SDS011;45930;53.514;55.904;2023-03-01T03:27:18;13.40;;;9.53;;
60054;SDS011;45930;53.514;55.904;2023-03-01T03:28:19;15.40;;;9.60;;
60054;SDS011;45930;53.514;55.904;2023-03-01T03:29:20;18.03;;;10.43;;
60054;SDS011;45930;53.514;55.904;2023-03-01T03:30:21;14.23;;;9.27;;
60054;SDS011;45930;53.514;55.904;2023-03-01T03:31:22;14.33;;;8.53;;
60054;SDS011;45930;53.514;55.904;2023-03-01T03:32:23;15.43;;;9.47;;
60054;SDS011;45930;53.514;55.904;2023-03-01T03:33:24;16.97;;;10.23;;
60054;SDS011;45930;53.514;55.904;2023-03-01T03:34:25;14.50;;;8.67;;
60054;SDS011;45930;53.514;55.904;2023-03-01T03:35:30;13.77;;;9.13;;
60054;SDS011;45930;53.514;55.904;2023-03-01T03:36:32;19.13;;;10.50;;
60054;SDS011;45930;53.514;55.904;2023-03-01T03:37:33;17.90;;;9.90;;
60054;SDS011;45930;53.514;55.904;2023-03-01T03:38:52;16.40;;;10.93;;
60054;SDS011;45930;53.514;55.904;2023-03-01T03:39:53;19.70;;;9.80;;
60054;SDS011;45930;53.514;55.904;2023-03-01T03:41:02;15.37;;;9.03;;
60054;SDS011;45930;53.514;55.904;2023-03-01T03:42:07;15.53;;;9.80;;
60054;SDS011;45930;53.514;55.904;2023-03-01T03:43:13;17.10;;;9.83;;
60054;SDS011;45930;53.514;55.904;2023-03-01T03:44:16;15.70;;;9.97;;
60054;SDS011;45930;53.514;55.904;2023-03-01T03:45:17;13.93;;;9.27;;
60054;SDS011;45930;53.514;55.904;2023-03-01T03:46:18;13.23;;;9.13;;
60054;SDS011;45930;53.514;55.904;2023-03-01T03:47:19;19.50;;;10.30;;
60054;SDS011;45930;53.514;55.904;2023-03-01T03:48:20;15.27;;;9.67;;
60054;SDS011;45930;53.514;55.904;2023-03-01T03:49:20;16.53;;;9.23;;
60054;SDS011;45930;53.514;55.904;2023-03-01T03:50:21;16.03;;;10.30;;
60054;SDS011;45930;53.514;55.904;2023-03-01T03:51:22;23.33;;;9.43;;
60054;SDS011;45930;53.514;55.904;2023-03-01T03:52:23;14.83;;;9.03;;
60054;SDS011;45930;53.514;55.904;2023-03-01T03:53:25;16.70;;;9.53;;
60054;SDS011;45930;53.514;55.904;2023-03-01T03:54:27;15.13;;;8.30;;
60054;SDS011;45930;53.514;55.904;2023-03-01T03:55:27;18.20;;;9.67;;
60054;SDS011;45930;53.514;55.904;2023-03-01T03:56:30;13.90;;;9.00;;
60054;SDS011;45930;53.514;55.904;2023-03-01T03:57:31;21.17;;;9.80;;
60054;SDS011;45930;53.514;55.904;2023-03-01T03:58:32;14.70;;;10.07;;
60054;SDS011;45930;53.514;55.904;2023-03-01T03:59:33;17.27;;;10.60;;
60054;SDS011;45930;53.514;55.904;2023-03-01T04:00:34;17.53;;;10.33;;
60054;SDS011;45930;53.514;55.904;2023-03-01T04:01:41;14.10;;;9.83;;
60054;SDS011;45930;53.514;55.904;2023-03-01T04:02:42;13.60;;;9.07;;
60054;SDS011;45930;53.514;55.904;2023-03-01T04:03:43;13.53;;;8.70;;
60054;SDS011;45930;53.514;55.904;2023-03-01T04:04:48;14.87;;;9.53;;
60054;SDS011;45930;53.514;55.904;2023-03-01T04:05:52;15.77;;;9.47;;
60054;SDS011;45930;53.514;55.904;2023-03-01T04:06:53;15.13;;;9.03;;
60054;SDS011;45930;53.514;55.904;2023-03-01T04:07:54;11.60;;;8.27;;
60054;SDS011;45930;53.514;55.904;2023-03-01T04:09:01;14.07;;;8.57;;
60054;SDS011;45930;53.514;55.904;2023-03-01T04:10:03;13.60;;;8.57;;
60054;SDS011;45930;53.514;55.904;2023-03-01T04:11:08;13.40;;;8.17;;
60054;SDS011;45930;53.514;55.904;2023-03-01T04:12:27;13.23;;;7.87;;
60054;SDS011;45930;53.514;55.904;2023-03-01T04:13:28;16.37;;;9.40;;
60054;SDS011;45930;53.514;55.904;2023-03-01T04:14:28;14.70;;;9.17;;
60054;SDS011;45930;53.514;55.904;2023-03-01T04:15:30;12.70;;;8.87;;
60054;SDS011;45930;53.514;55.904;2023-03-01T04:16:32;14.27;;;8.73;;
60054;SDS011;45930;53.514;55.904;2023-03-01T04:17:33;15.97;;;9.00;;
60054;SDS011;45930;53.514;55.904;2023-03-01T04:18:34;12.60;;;8.50;;
60054;SDS011;45930;53.514;55.904;2023-03-01T04:19:35;12.30;;;8.77;;
60054;SDS011;45930;53.514;55.904;2023-03-01T04:20:36;12.67;;;8.07;;
60054;SDS011;45930;53.514;55.904;2023-03-01T04:21:37;14.00;;;8.40;;
60054;SDS011;45930;53.514;55.904;2023-03-01T04:22:38;15.83;;;8.87;;
60054;SDS011;45930;53.514;55.904;2023-03-01T04:23:41;15.50;;;9.67;;
60054;SDS011;45930;53.514;55.904;2023-03-01T04:24:42;13.80;;;9.33;;
60054;SDS011;45930;53.514;55.904;2023-03-01T04:25:47;17.33;;;9.83;;
60054;SDS011;45930;53.514;55.904;2023-03-01T04:26:55;13.37;;;8.90;;
60054;SDS011;45930;53.514;55.904;2023-03-01T04:27:56;12.47;;;8.47;;
60054;SDS011;45930;53.514;55.904;2023-03-01T04:28:56;13.23;;;8.63;;
60054;SDS011;45930;53.514;55.904;2023-03-01T04:29:57;14.93;;;8.87;;
60054;SDS011;45930;53.514;55.904;2023-03-01T04:30:58;14.17;;;9.10;;
60054;SDS011;45930;53.514;55.904;2023-03-01T04:32:13;13.63;;;8.40;;
60054;SDS011;45930;53.514;55.904;2023-03-01T04:33:16;12.13;;;8.17;;
60054;SDS011;45930;53.514;55.904;2023-03-01T04:34:17;13.07;;;8.10;;
60054;SDS011;45930;53.514;55.904;2023-03-01T04:35:18;13.93;;;8.83;;
60054;SDS011;45930;53.514;55.904;2023-03-01T04:36:20;12.67;;;8.37;;
60054;SDS011;45930;53.514;55.904;2023-03-01T04:37:23;15.73;;;8.63;;
60054;SDS011;45930;53.514;55.904;2023-03-01T04:38:24;12.30;;;8.47;;
60054;SDS011;45930;53.514;55.904;2023-03-01T04:39:25;16.83;;;8.87;;
60054;SDS011;45930;53.514;55.904;2023-03-01T04:40:26;13.80;;;7.97;;
60054;SDS011;45930;53.514;55.904;2023-03-01T04:41:27;11.20;;;8.03;;
60054;SDS011;45930;53.514;55.904;2023-03-01T04:42:28;12.97;;;8.87;;
60054;SDS011;45930;53.514;55.904;2023-03-01T04:43:29;12.13;;;7.77;;
60054;SDS011;45930;53.514;55.904;2023-03-01T04:44:29;13.03;;;8.37;;
60054;SDS011;45930;53.514;55.904;2023-03-01T04:45:31;14.10;;;9.03;;
60054;SDS011;45930;53.514;55.904;2023-03-01T04:46:34;14.33;;;8.67;;
60054;SDS011;45930;53.514;55.904;2023-03-01T04:47:36;12.47;;;8.43;;
60054;SDS011;45930;53.514;55.904;2023-03-01T04:48:39;13.83;;;8.40;;
60054;SDS011;45930;53.514;55.904;2023-03-01T04:49:41;12.70;;;8.23;;
60054;SDS011;45930;53.514;55.904;2023-03-01T04:50:41;12.73;;;8.57;;
60054;SDS011;45930;53.514;55.904;2023-03-01T04:51:42;16.73;;;8.83;;
60054;SDS011;45930;53.514;55.904;2023-03-01T04:52:43;13.33;;;7.83;;
60054;SDS011;45930;53.514;55.904;2023-03-01T04:53:44;13.33;;;8.87;;
60054;SDS011;45930;53.514;55.904;2023-03-01T04:54:45;13.53;;;9.63;;
60054;SDS011;45930;53.514;55.904;2023-03-01T04:55:46;13.00;;;8.90;;
60054;SDS011;45930;53.514;55.904;2023-03-01T04:56:46;12.93;;;8.40;;
60054;SDS011;45930;53.514;55.904;2023-03-01T04:57:47;12.37;;;8.07;;
60054;SDS011;45930;53.514;55.904;2023-03-01T04:58:48;14.17;;;8.40;;
60054;SDS011;45930;53.514;55.904;2023-03-01T04:59:49;11.47;;;7.57;;
60054;SDS011;45930;53.514;55.904;2023-03-01T05:00:50;13.80;;;8.27;;
60054;SDS011;45930;53.514;55.904;2023-03-01T05:01:51;12.97;;;8.43;;
60054;SDS011;45930;53.514;55.904;2023-03-01T05:02:56;14.27;;;8.73;;
60054;SDS011;45930;53.514;55.904;2023-03-01T05:04:00;11.60;;;8.00;;
60054;SDS011;45930;53.514;55.904;2023-03-01T05:05:03;15.03;;;8.30;;
60054;SDS011;45930;53.514;55.904;2023-03-01T05:06:06;13.17;;;8.23;;
60054;SDS011;45930;53.514;55.904;2023-03-01T05:07:07;13.97;;;7.60;;
60054;SDS011;45930;53.514;55.904;2023-03-01T05:08:08;11.07;;;7.70;;
60054;SDS011;45930;53.514;55.904;2023-03-01T05:09:09;13.17;;;7.87;;
60054;SDS011;45930;53.514;55.904;2023-03-01T05:10:11;13.10;;;7.27;;
60054;SDS011;45930;53.514;55.904;2023-03-01T05:11:15;10.90;;;7.73;;
60054;SDS011;45930;53.514;55.904;2023-03-01T05:12:16;11.93;;;8.50;;
60054;SDS011;45930;53.514;55.904;2023-03-01T05:13:18;11.97;;;7.30;;
60054;SDS011;45930;53.514;55.904;2023-03-01T05:14:23;13.20;;;8.57;;
60054;SDS011;45930;53.514;55.904;2023-03-01T05:15:24;13.07;;;7.50;;
60054;SDS011;45930;53.514;55.904;2023-03-01T05:16:26;12.90;;;7.77;;
60054;SDS011;45930;53.514;55.904;2023-03-01T05:17:27;11.30;;;7.67;;
60054;SDS011;45930;53.514;55.904;2023-03-01T05:18:29;14.53;;;8.83;;
60054;SDS011;45930;53.514;55.904;2023-03-01T05:19:33;13.93;;;8.70;;
60054;SDS011;45930;53.514;55.904;2023-03-01T05:20:34;12.37;;;8.57;;
60054;SDS011;45930;53.514;55.904;2023-03-01T05:21:37;12.10;;;8.03;;
60054;SDS011;45930;53.514;55.904;2023-03-01T05:23:01;17.30;;;8.83;;
60054;SDS011;45930;53.514;55.904;2023-03-01T05:24:05;12.13;;;8.33;;
60054;SDS011;45930;53.514;55.904;2023-03-01T05:25:10;11.83;;;8.00;;
60054;SDS011;45930;53.514;55.904;2023-03-01T05:26:14;13.60;;;8.93;;
60054;SDS011;45930;53.514;55.904;2023-03-01T05:27:16;13.63;;;8.70;;
60054;SDS011;45930;53.514;55.904;2023-03-01T05:28:17;17.37;;;9.00;;
60054;SDS011;45930;53.514;55.904;2023-03-01T05:29:19;14.10;;;8.10;;
60054;SDS011;45930;53.514;55.904;2023-03-01T05:30:25;12.43;;;8.60;;
60054;SDS011;45930;53.514;55.904;2023-03-01T05:31:26;12.37;;;8.40;;
60054;SDS011;45930;53.514;55.904;2023-03-01T05:32:26;13.17;;;9.13;;
60054;SDS011;45930;53.514;55.904;2023-03-01T05:33:27;15.37;;;8.37;;
60054;SDS011;45930;53.514;55.904;2023-03-01T05:34:29;15.27;;;8.70;;
60054;SDS011;45930;53.514;55.904;2023-03-01T05:35:32;13.93;;;8.87;;
60054;SDS011;45930;53.514;55.904;2023-03-01T05:36:33;14.60;;;8.43;;
60054;SDS011;45930;53.514;55.904;2023-03-01T05:37:34;13.37;;;9.80;;
60054;SDS011;45930;53.514;55.904;2023-03-01T05:38:36;14.93;;;9.37;;
60054;SDS011;45930;53.514;55.904;2023-03-01T05:39:37;12.97;;;9.73;;
60054;SDS011;45930;53.514;55.904;2023-03-01T05:40:38;13.00;;;8.50;;
60054;SDS011;45930;53.514;55.904;2023-03-01T05:41:40;13.00;;;8.83;;
60054;SDS011;45930;53.514;55.904;2023-03-01T05:42:42;13.37;;;8.17;;
60054;SDS011;45930;53.514;55.904;2023-03-01T05:43:44;14.47;;;8.43;;
60054;SDS011;45930;53.514;55.904;2023-03-01T05:44:45;10.77;;;7.30;;
60054;SDS011;45930;53.514;55.904;2023-03-01T05:45:45;11.10;;;7.57;;
60054;SDS011;45930;53.514;55.904;2023-03-01T05:46:47;14.13;;;8.30;;
60054;SDS011;45930;53.514;55.904;2023-03-01T05:47:48;13.40;;;9.07;;
60054;SDS011;45930;53.514;55.904;2023-03-01T05:48:49;13.93;;;8.90;;
60054;SDS011;45930;53.514;55.904;2023-03-01T05:49:50;14.53;;;8.73;;
60054;SDS011;45930;53.514;55.904;2023-03-01T05:50:51;11.80;;;7.63;;
60054;SDS011;45930;53.514;55.904;2023-03-01T05:51:52;12.87;;;8.23;;
60054;SDS011;45930;53.514;55.904;2023-03-01T05:52:58;11.53;;;7.70;;
60054;SDS011;45930;53.514;55.904;2023-03-01T05:54:10;11.97;;;8.30;;
60054;SDS011;45930;53.514;55.904;2023-03-01T05:55:11;13.20;;;8.17;;
60054;SDS011;45930;53.514;55.904;2023-03-01T05:56:13;12.87;;;7.93;;
60054;SDS011;45930;53.514;55.904;2023-03-01T05:57:14;12.47;;;9.10;;
60054;SDS011;45930;53.514;55.904;2023-03-01T05:58:16;12.90;;;8.23;;
60054;SDS011;45930;53.514;55.904;2023-03-01T05:59:18;15.40;;;8.83;;
60054;SDS011;45930;53.514;55.904;2023-03-01T06:00:19;12.60;;;8.50;;
60054;SDS011;45930;53.514;55.904;2023-03-01T06:01:23;14.43;;;8.47;;
60054;SDS011;45930;53.514;55.904;2023-03-01T06:02:24;12.70;;;9.30;;
60054;SDS011;45930;53.514;55.904;2023-03-01T06:03:25;14.82;;;8.75;;
60054;SDS011;45930;53.514;55.904;2023-03-01T06:04:26;13.35;;;8.65;;
60054;SDS011;45930;53.514;55.904;2023-03-01T06:05:26;11.93;;;8.40;;
60054;SDS011;45930;53.514;55.904;2023-03-01T06:06:28;14.55;;;8.48;;
60054;SDS011;45930;53.514;55.904;2023-03-01T06:07:29;15.77;;;9.03;;
60054;SDS011;45930;53.514;55.904;2023-03-01T06:08:30;13.23;;;8.82;;
60054;SDS011;45930;53.514;55.904;2023-03-01T06:09:30;12.73;;;9.80;;
60054;SDS011;45930;53.514;55.904;2023-03-01T06:10:31;12.77;;;8.52;;
60054;SDS011;45930;53.514;55.904;2023-03-01T06:11:35;11.95;;;8.40;;
60054;SDS011;45930;53.514;55.904;2023-03-01T06:12:37;11.88;;;8.52;;
60054;SDS011;45930;53.514;55.904;2023-03-01T06:13:40;11.48;;;8.75;;
60054;SDS011;45930;53.514;55.904;2023-03-01T06:14:42;11.38;;;7.32;;
60054;SDS011;45930;53.514;55.904;2023-03-01T06:15:43;14.02;;;8.52;;
60054;SDS011;45930;53.514;55.904;2023-03-01T06:16:44;12.80;;;8.50;;
60054;SDS011;45930;53.514;55.904;2023-03-01T06:17:45;11.25;;;7.75;;
60054;SDS011;45930;53.514;55.904;2023-03-01T06:18:46;14.65;;;8.70;;
60054;SDS011;45930;53.514;55.904;2023-03-01T06:19:47;12.15;;;8.27;;